Time;durP1;ratioP1;P1;durP2;ratioP2;P2;SDS_P1;SDS_P2;PMS_P1;PMS_P2;Temp;Humidity;BMP_temperature;BMP_pressure;BME280_temperature;BME280_humidity;BME280_pressure;Samples;Min_cycle;Max_cycle;Signal;HPM_P1;HPM_P2
2022/03/31 00:00:13;;;;;;;2.95;1.77;;;18.60;45.40;;;;;;5110242;27;45123;-77
2022/03/31 00:02:40;;;;;;;2.13;1.38;;;18.50;45.00;;;;;;5108052;27;45433;-77
2022/03/31 00:05:07;;;;;;;3.47;1.80;;;18.50;45.00;;;;;;5111050;27;45251;-77
2022/03/31 00:07:34;;;;;;;1.77;1.67;;;18.50;45.00;;;;;;5110442;27;45352;-77
2022/03/31 00:10:01;;;;;;;2.75;1.70;;;18.50;45.00;;;;;;5110104;27;45288;-77
2022/03/31 00:12:28;;;;;;;2.88;1.98;;;18.50;45.10;;;;;;5110228;27;47875;-77
2022/03/31 00:14:55;;;;;;;2.95;1.92;;;18.50;45.00;;;;;;5108073;27;45944;-77
2022/03/31 00:17:23;;;;;;;3.30;1.70;;;18.50;45.10;;;;;;5109458;27;45277;-77
2022/03/31 00:19:50;;;;;;;3.33;1.90;;;18.50;45.30;;;;;;5103697;27;45493;-77
2022/03/31 00:22:17;;;;;;;2.58;1.58;;;18.50;45.20;;;;;;5106212;27;47943;-77
2022/03/31 00:24:44;;;;;;;4.45;1.80;;;18.60;45.40;;;;;;5103993;27;45538;-77
2022/03/31 00:27:11;;;;;;;2.08;1.40;;;18.60;45.40;;;;;;5107225;27;45269;-76
2022/03/31 00:29:38;;;;;;;2.28;1.42;;;18.60;45.70;;;;;;5107000;27;45307;-77
2022/03/31 00:32:05;;;;;;;1.75;1.35;;;18.60;45.60;;;;;;5104478;27;47480;-77
2022/03/31 00:34:35;;;;;;;1.88;1.30;;;18.60;45.80;;;;;;5109893;27;45168;-77
2022/03/31 00:37:02;;;;;;;1.77;1.42;;;18.60;45.80;;;;;;5109701;27;45261;-77
2022/03/31 00:39:32;;;;;;;1.65;1.20;;;18.60;45.80;;;;;;5109552;27;45138;-77
2022/03/31 00:42:00;;;;;;;2.28;1.60;;;18.60;45.80;;;;;;5108156;27;46540;-77
2022/03/31 00:44:27;;;;;;;2.17;1.52;;;18.60;45.70;;;;;;5109863;27;45254;-77
2022/03/31 00:46:55;;;;;;;3.15;1.88;;;18.60;45.60;;;;;;5108668;27;45335;-77
2022/03/31 00:49:24;;;;;;;2.28;1.50;;;18.60;45.80;;;;;;5109445;27;45286;-77
2022/03/31 00:51:54;;;;;;;2.25;1.60;;;18.60;45.70;;;;;;5107932;27;46226;-77
2022/03/31 00:54:25;;;;;;;2.58;1.60;;;18.50;45.60;;;;;;5096424;27;45640;-77
2022/03/31 00:56:54;;;;;;;3.08;1.98;;;18.50;46.90;;;;;;5109923;27;45221;-77
2022/03/31 00:59:21;;;;;;;2.70;1.80;;;18.50;45.90;;;;;;5102196;27;45222;-77
2022/03/31 01:01:48;;;;;;;2.55;1.70;;;18.50;45.90;;;;;;5112351;27;46174;-77
2022/03/31 01:04:16;;;;;;;2.92;1.92;;;18.50;46.10;;;;;;5117599;27;45157;-78
2022/03/31 01:06:44;;;;;;;2.97;2.00;;;18.50;46.20;;;;;;5108137;27;45196;-77
2022/03/31 01:09:14;;;;;;;3.05;1.65;;;18.50;46.30;;;;;;5109441;27;45298;-77
2022/03/31 01:11:41;;;;;;;3.80;1.90;;;18.50;46.30;;;;;;5108072;27;45331;-77
2022/03/31 01:14:08;;;;;;;2.92;1.90;;;18.50;46.50;;;;;;5109981;27;45179;-77
2022/03/31 01:16:35;;;;;;;2.65;1.70;;;18.50;46.50;;;;;;5109775;27;45381;-77
2022/03/31 01:19:04;;;;;;;3.25;1.60;;;18.50;46.60;;;;;;5108409;27;45409;-77
2022/03/31 01:21:31;;;;;;;1.80;1.50;;;18.50;46.60;;;;;;5106694;27;45298;-77
2022/03/31 01:24:00;;;;;;;2.03;1.55;;;18.60;46.70;;;;;;5109239;27;45375;-77
2022/03/31 01:26:27;;;;;;;2.05;1.48;;;18.60;46.80;;;;;;5108059;27;45537;-77
2022/03/31 01:28:54;;;;;;;3.45;1.75;;;18.60;46.70;;;;;;5108293;27;45095;-77
2022/03/31 01:31:21;;;;;;;3.45;1.55;;;18.60;46.60;;;;;;5109298;27;48005;-77
2022/03/31 01:33:48;;;;;;;3.42;1.80;;;18.60;46.60;;;;;;5107151;27;45507;-77
2022/03/31 01:36:15;;;;;;;2.72;1.50;;;18.60;46.60;;;;;;5108921;27;45223;-77
2022/03/31 01:38:42;;;;;;;2.30;1.60;;;18.60;46.60;;;;;;5106783;27;45128;-77
2022/03/31 01:41:10;;;;;;;2.90;1.75;;;18.60;46.50;;;;;;5106972;27;45236;-77
2022/03/31 01:43:37;;;;;;;2.55;1.63;;;18.60;46.50;;;;;;5109701;27;45321;-77
2022/03/31 01:46:03;;;;;;;2.40;1.67;;;18.60;46.40;;;;;;5105534;27;45271;-77
2022/03/31 01:48:30;;;;;;;2.42;1.60;;;18.60;46.40;;;;;;5108395;27;45250;-77
2022/03/31 01:50:57;;;;;;;2.47;1.73;;;18.60;46.40;;;;;;5108933;27;47296;-77
2022/03/31 01:53:24;;;;;;;2.97;1.70;;;18.50;46.30;;;;;;5107141;27;45686;-77
2022/03/31 01:55:50;;;;;;;3.60;2.00;;;18.50;46.40;;;;;;5105075;27;45551;-77
2022/03/31 01:58:19;;;;;;;3.17;2.03;;;18.50;46.40;;;;;;5108577;27;45554;-77
2022/03/31 02:00:46;;;;;;;3.10;1.70;;;18.50;46.40;;;;;;5108051;27;45301;-77
2022/03/31 02:03:12;;;;;;;2.70;1.77;;;18.50;46.30;;;;;;5106550;27;45623;-77
2022/03/31 02:05:39;;;;;;;3.65;2.10;;;18.50;46.30;;;;;;5107323;27;45348;-77
2022/03/31 02:08:06;;;;;;;2.97;2.20;;;18.50;46.10;;;;;;5108972;27;45436;-77
2022/03/31 02:10:33;;;;;;;3.13;1.95;;;18.50;46.20;;;;;;5106591;27;45258;-77
2022/03/31 02:13:01;;;;;;;2.65;1.83;;;18.50;46.10;;;;;;5112122;27;45220;-77
2022/03/31 02:15:30;;;;;;;4.47;1.95;;;18.50;46.30;;;;;;5119591;27;45103;-77
2022/03/31 02:17:57;;;;;;;2.10;1.73;;;18.50;46.20;;;;;;5108339;27;45373;-77
2022/03/31 02:20:27;;;;;;;5.15;1.90;;;18.50;46.40;;;;;;5102476;27;46188;-77
2022/03/31 02:22:54;;;;;;;3.78;1.90;;;18.60;46.60;;;;;;5104504;27;45554;-77
2022/03/31 02:25:20;;;;;;;2.28;1.50;;;18.60;46.70;;;;;;5104328;27;45269;-78
2022/03/31 02:27:52;;;;;;;2.65;1.83;;;18.60;46.70;;;;;;5104531;27;45213;-77
2022/03/31 02:30:19;;;;;;;2.38;1.70;;;18.60;46.70;;;;;;5102975;27;46427;-77
2022/03/31 02:32:48;;;;;;;2.60;1.90;;;18.60;46.90;;;;;;5101656;27;45472;-77
2022/03/31 02:35:14;;;;;;;3.70;1.70;;;18.60;47.00;;;;;;5108401;27;45239;-77
2022/03/31 02:37:41;;;;;;;3.35;2.10;;;18.60;47.00;;;;;;5107358;27;45310;-77
2022/03/31 02:40:08;;;;;;;2.70;1.83;;;18.60;48.20;;;;;;5107271;27;45274;-77
2022/03/31 02:42:35;;;;;;;2.63;1.92;;;18.50;47.00;;;;;;5106385;27;45216;-77
2022/03/31 02:45:02;;;;;;;2.97;2.15;;;18.50;47.10;;;;;;5108452;27;45221;-77
2022/03/31 02:47:29;;;;;;;2.75;1.70;;;18.50;47.30;;;;;;5106937;27;45378;-77
2022/03/31 02:49:57;;;;;;;2.63;1.95;;;18.50;47.30;;;;;;5107546;27;45468;-77
2022/03/31 02:52:25;;;;;;;3.35;1.75;;;18.50;47.40;;;;;;5104125;27;45211;-77
2022/03/31 02:57:36;;;;;;;2.78;1.92;;;18.50;47.70;;;;;;5105627;27;45149;-78
2022/03/31 03:00:05;;;;;;;3.40;1.88;;;18.50;47.80;;;;;;5100934;27;46473;-77
2022/03/31 03:02:32;;;;;;;3.22;1.92;;;18.50;47.80;;;;;;5107277;27;45367;-77
2022/03/31 03:05:00;;;;;;;3.05;1.90;;;18.50;47.90;;;;;;5108269;27;45315;-78
2022/03/31 03:07:27;;;;;;;4.07;1.98;;;18.50;48.00;;;;;;5108529;27;46870;-77
2022/03/31 03:09:54;;;;;;;2.30;1.75;;;18.50;47.90;;;;;;5107249;27;47080;-77
2022/03/31 03:12:21;;;;;;;3.45;2.10;;;18.50;47.90;;;;;;5105610;27;45315;-77
2022/03/31 03:14:47;;;;;;;2.53;1.50;;;18.50;48.00;;;;;;5108419;27;45142;-77
2022/03/31 03:17:14;;;;;;;3.20;1.67;;;18.50;47.90;;;;;;5106565;27;45173;-77
2022/03/31 03:19:41;;;;;;;2.03;1.48;;;18.50;48.00;;;;;;5106213;27;47034;-77
2022/03/31 03:22:09;;;;;;;3.20;2.00;;;18.60;48.20;;;;;;5106589;27;45332;-77
2022/03/31 03:24:36;;;;;;;3.03;1.80;;;18.60;48.10;;;;;;5100140;27;46819;-77
2022/03/31 03:27:03;;;;;;;2.17;1.80;;;18.60;48.20;;;;;;5107856;27;45361;-77
2022/03/31 03:29:29;;;;;;;2.97;2.30;;;18.50;48.20;;;;;;5105217;27;47826;-77
2022/03/31 03:31:56;;;;;;;4.13;2.00;;;18.60;48.40;;;;;;5105504;27;45181;-77
2022/03/31 03:34:23;;;;;;;4.35;2.47;;;18.60;48.40;;;;;;5105879;27;45266;-78
2022/03/31 03:36:50;;;;;;;3.03;2.10;;;18.60;48.50;;;;;;5106781;27;45176;-77
2022/03/31 03:39:18;;;;;;;3.47;2.40;;;18.60;48.60;;;;;;5105308;27;45945;-77
2022/03/31 03:41:45;;;;;;;3.05;2.45;;;18.60;48.80;;;;;;5107164;27;45338;-77
2022/03/31 03:44:12;;;;;;;3.33;2.45;;;18.50;48.90;;;;;;5105862;27;45268;-77
2022/03/31 03:46:40;;;;;;;3.40;2.28;;;18.50;49.00;;;;;;5105263;27;45623;-77
2022/03/31 03:49:07;;;;;;;4.07;2.70;;;18.50;49.10;;;;;;5086547;27;46565;-77
2022/03/31 03:51:33;;;;;;;3.75;2.30;;;18.50;49.20;;;;;;5101071;27;45146;-77
2022/03/31 03:54:00;;;;;;;4.15;2.33;;;18.50;49.20;;;;;;5103230;27;45336;-77
2022/03/31 03:56:29;;;;;;;3.85;2.70;;;18.50;49.30;;;;;;5106365;27;45463;-77
2022/03/31 03:58:55;;;;;;;4.18;2.65;;;18.50;49.30;;;;;;5103255;27;47954;-77
2022/03/31 04:01:22;;;;;;;3.25;2.38;;;18.50;49.40;;;;;;5105804;27;45159;-77
2022/03/31 04:03:49;;;;;;;3.28;2.25;;;18.50;49.50;;;;;;5109096;27;45426;-77
2022/03/31 04:06:16;;;;;;;2.85;2.20;;;18.50;49.50;;;;;;5109738;27;45940;-77
2022/03/31 04:08:42;;;;;;;3.75;2.58;;;18.50;49.50;;;;;;5107205;27;47118;-77
2022/03/31 04:11:09;;;;;;;2.90;2.17;;;18.50;49.50;;;;;;5110525;27;45328;-77
2022/03/31 04:13:37;;;;;;;2.85;2.15;;;18.50;49.40;;;;;;5109809;27;45440;-77
2022/03/31 04:16:05;;;;;;;3.88;2.50;;;18.50;49.50;;;;;;5109626;27;45555;-77
2022/03/31 04:18:32;;;;;;;3.83;2.55;;;18.50;49.60;;;;;;5108300;27;47006;-77
2022/03/31 04:21:01;;;;;;;2.55;2.00;;;18.50;49.70;;;;;;5107385;27;45984;-77
2022/03/31 04:23:27;;;;;;;3.70;2.33;;;18.50;49.70;;;;;;5103455;27;45405;-77
2022/03/31 04:25:54;;;;;;;3.03;2.10;;;18.50;49.70;;;;;;5105832;27;45467;-77
2022/03/31 04:28:21;;;;;;;5.13;2.90;;;18.50;49.70;;;;;;5102066;27;47424;-77
2022/03/31 04:30:49;;;;;;;4.90;2.78;;;18.50;49.80;;;;;;5109418;27;45116;-77
2022/03/31 04:33:16;;;;;;;4.00;2.92;;;18.50;49.80;;;;;;5112143;27;45362;-77
2022/03/31 04:35:43;;;;;;;4.80;3.05;;;18.50;50.00;;;;;;5110244;27;45349;-77
2022/03/31 04:38:10;;;;;;;3.33;2.58;;;18.50;50.00;;;;;;5110011;27;46626;-77
2022/03/31 04:40:37;;;;;;;4.85;3.25;;;18.40;50.10;;;;;;5107526;27;45178;-77
2022/03/31 04:43:03;;;;;;;3.97;2.85;;;18.40;50.10;;;;;;5107618;27;45285;-77
2022/03/31 04:45:30;;;;;;;3.97;2.78;;;18.40;50.00;;;;;;5110799;27;45443;-77
2022/03/31 04:47:59;;;;;;;4.22;3.05;;;18.40;50.00;;;;;;5107950;27;45266;-77
2022/03/31 04:50:26;;;;;;;4.72;3.20;;;18.40;50.10;;;;;;5106238;27;45453;-77
2022/03/31 04:52:52;;;;;;;6.13;3.50;;;18.40;50.10;;;;;;5105540;27;45678;-76
2022/03/31 04:55:19;;;;;;;4.50;3.17;;;18.40;50.30;;;;;;5106531;27;45205;-77
2022/03/31 04:57:46;;;;;;;6.22;3.58;;;18.40;50.50;;;;;;5107572;27;47982;-76
2022/03/31 05:00:14;;;;;;;6.00;3.70;;;18.40;50.50;;;;;;5101987;27;45272;-76
2022/03/31 05:02:40;;;;;;;3.72;2.90;;;18.30;50.60;;;;;;5106210;27;45487;-76
2022/03/31 05:05:09;;;;;;;6.53;4.00;;;18.30;50.30;;;;;;5108750;27;45490;-77
2022/03/31 05:07:36;;;;;;;4.93;2.80;;;18.40;50.70;;;;;;5107478;27;46271;-77
2022/03/31 05:10:03;;;;;;;4.15;2.63;;;18.40;50.50;;;;;;5108832;27;45152;-77
2022/03/31 05:12:30;;;;;;;3.70;2.63;;;18.40;50.30;;;;;;5106487;27;45189;-77
2022/03/31 05:14:57;;;;;;;5.25;3.20;;;18.40;50.30;;;;;;5108898;27;45329;-77
2022/03/31 05:17:24;;;;;;;6.07;3.97;;;18.40;50.50;;;;;;5106683;27;46265;-76
2022/03/31 05:19:51;;;;;;;8.60;3.30;;;18.50;50.20;;;;;;5107562;27;45633;-76
2022/03/31 05:22:19;;;;;;;4.95;3.65;;;18.50;50.20;;;;;;5105642;27;45586;-76
2022/03/31 05:24:46;;;;;;;4.45;3.40;;;18.60;50.10;;;;;;5105856;27;45249;-77
2022/03/31 05:27:12;;;;;;;5.15;3.40;;;18.60;50.10;;;;;;5107206;27;48068;-77
2022/03/31 05:29:39;;;;;;;4.75;3.17;;;18.60;50.30;;;;;;5093404;27;45315;-77
2022/03/31 05:32:07;;;;;;;4.93;3.20;;;18.60;50.20;;;;;;5099412;27;45899;-77
2022/03/31 05:34:35;;;;;;;4.32;3.15;;;18.60;50.40;;;;;;5101603;27;45347;-77
2022/03/31 05:37:03;;;;;;;5.43;3.15;;;18.60;50.40;;;;;;5108050;27;47324;-77
2022/03/31 05:39:33;;;;;;;4.53;2.70;;;18.60;51.50;;;;;;5106511;27;45201;-77
2022/03/31 05:42:00;;;;;;;4.93;2.50;;;18.60;50.40;;;;;;5108433;27;45238;-77
2022/03/31 05:44:26;;;;;;;6.05;3.35;;;18.60;50.40;;;;;;5121351;27;45372;-77
2022/03/31 05:46:53;;;;;;;3.58;2.80;;;18.50;50.30;;;;;;5111072;27;47083;-77
2022/03/31 05:49:20;;;;;;;5.13;3.33;;;18.50;50.30;;;;;;5108537;27;45485;-77
2022/03/31 05:51:47;;;;;;;5.03;3.00;;;18.50;50.30;;;;;;5109591;27;45291;-77
2022/03/31 05:54:14;;;;;;;5.50;3.00;;;18.50;50.30;;;;;;5105450;27;45207;-77
2022/03/31 05:56:43;;;;;;;4.53;2.72;;;18.50;50.30;;;;;;5107743;27;46190;-77
2022/03/31 05:59:10;;;;;;;4.85;3.20;;;18.50;50.30;;;;;;5107131;27;45672;-77
2022/03/31 06:01:37;;;;;;;3.58;2.88;;;18.50;50.30;;;;;;5108904;27;45281;-77
2022/03/31 06:04:04;;;;;;;3.80;2.67;;;18.50;50.30;;;;;;5107936;27;45236;-77
2022/03/31 06:06:31;;;;;;;4.55;2.75;;;18.50;50.20;;;;;;5098276;27;46208;-77
2022/03/31 06:08:58;;;;;;;5.22;3.47;;;18.60;50.20;;;;;;5104090;27;45343;-77
2022/03/31 06:11:25;;;;;;;5.40;2.90;;;18.60;50.20;;;;;;5105140;27;45381;-77
2022/03/31 06:13:53;;;;;;;4.30;2.90;;;18.50;50.20;;;;;;5098923;27;45352;-77
2022/03/31 06:16:20;;;;;;;3.70;2.33;;;18.50;50.10;;;;;;5102030;27;45371;-77
2022/03/31 06:18:47;;;;;;;3.72;2.63;;;18.60;50.30;;;;;;5096899;27;45722;-77
2022/03/31 06:21:14;;;;;;;4.45;3.05;;;18.50;50.10;;;;;;5105728;27;45383;-77
2022/03/31 06:23:41;;;;;;;4.55;2.90;;;18.60;50.30;;;;;;5107008;27;45426;-77
2022/03/31 06:26:08;;;;;;;4.72;2.88;;;18.50;50.20;;;;;;5103361;27;46600;-77
2022/03/31 06:28:35;;;;;;;4.20;2.70;;;18.60;50.30;;;;;;5095152;27;45253;-77
2022/03/31 06:31:04;;;;;;;3.67;2.58;;;18.50;50.10;;;;;;5102688;27;45467;-77
2022/03/31 06:33:31;;;;;;;5.32;2.60;;;18.50;50.20;;;;;;5101250;27;45458;-77
2022/03/31 06:35:57;;;;;;;4.22;2.42;;;18.50;50.10;;;;;;5107431;27;46214;-77
2022/03/31 06:38:24;;;;;;;3.42;2.50;;;18.50;50.20;;;;;;5087877;28;45274;-77
2022/03/31 06:43:32;;;;;;;4.00;2.60;;;18.50;50.30;;;;;;5104439;27;45400;-75
2022/03/31 06:45:58;;;;;;;3.35;2.60;;;18.50;50.40;;;;;;5101879;27;46442;-77
2022/03/31 06:48:27;;;;;;;4.38;2.60;;;18.50;50.40;;;;;;5106481;27;45268;-76
2022/03/31 06:50:54;;;;;;;3.80;2.80;;;18.50;50.50;;;;;;5105166;27;45153;-76
2022/03/31 06:53:21;;;;;;;3.85;2.67;;;18.50;50.40;;;;;;5108154;27;45328;-76
2022/03/31 06:55:48;;;;;;;4.53;2.75;;;18.40;50.20;;;;;;5111131;27;46172;-78
2022/03/31 06:58:15;;;;;;;4.88;2.95;;;18.40;50.20;;;;;;5100869;27;45226;-77
2022/03/31 07:00:41;;;;;;;4.85;2.90;;;18.50;50.20;;;;;;5101844;27;45223;-76
2022/03/31 07:03:08;;;;;;;4.13;2.92;;;18.50;50.00;;;;;;5107399;27;45446;-76
2022/03/31 07:05:38;;;;;;;5.47;3.13;;;18.50;50.00;;;;;;5103596;27;47929;-76
2022/03/31 07:08:05;;;;;;;5.40;3.17;;;18.60;49.90;;;;;;5108294;27;45152;-76
2022/03/31 07:10:32;;;;;;;4.78;3.30;;;18.60;49.90;;;;;;5105718;27;45177;-76
2022/03/31 07:13:00;;;;;;;4.70;2.90;;;18.60;49.80;;;;;;5108413;27;45218;-77
2022/03/31 07:15:27;;;;;;;4.43;3.20;;;18.60;49.80;;;;;;5106562;27;47030;-76
2022/03/31 07:17:54;;;;;;;4.78;2.60;;;18.60;49.80;;;;;;5105667;27;45192;-76
2022/03/31 07:20:21;;;;;;;4.55;3.03;;;18.60;49.60;;;;;;5107496;27;45156;-76
2022/03/31 07:22:50;;;;;;;5.30;2.80;;;18.60;49.70;;;;;;5105014;27;45673;-76
2022/03/31 07:25:18;;;;;;;4.10;2.58;;;18.60;49.80;;;;;;5105852;27;45382;-76
2022/03/31 07:27:45;;;;;;;4.20;2.90;;;18.60;49.80;;;;;;5105839;27;45816;-77
2022/03/31 07:30:13;;;;;;;3.92;2.72;;;18.60;49.70;;;;;;5106992;27;45550;-77
2022/03/31 07:32:48;;;;;;;3.55;2.53;;;18.60;49.80;;;;;;5105190;27;45326;-77
2022/03/31 07:35:15;;;;;;;3.25;2.40;;;18.60;49.80;;;;;;5107694;27;46594;-77
2022/03/31 07:37:42;;;;;;;5.22;3.00;;;18.60;49.80;;;;;;5088940;27;45264;-77
2022/03/31 07:40:11;;;;;;;4.35;2.55;;;18.60;50.00;;;;;;5105889;27;45356;-77
2022/03/31 07:42:38;;;;;;;5.30;2.90;;;18.60;50.00;;;;;;5109283;27;45376;-77
2022/03/31 07:45:06;;;;;;;2.88;2.38;;;18.60;50.00;;;;;;5109919;27;47034;-77
2022/03/31 07:47:34;;;;;;;3.72;2.58;;;18.60;50.00;;;;;;5108473;27;45276;-77
2022/03/31 07:50:01;;;;;;;3.97;2.80;;;18.60;50.00;;;;;;5105252;27;45219;-77
2022/03/31 07:52:28;;;;;;;3.95;2.70;;;18.60;50.10;;;;;;5107057;27;45233;-77
2022/03/31 07:54:54;;;;;;;4.10;2.85;;;18.60;50.10;;;;;;5100680;27;47223;-77
2022/03/31 07:57:22;;;;;;;4.13;2.65;;;18.60;50.20;;;;;;5108731;27;45236;-77
2022/03/31 07:59:49;;;;;;;4.65;3.00;;;18.60;50.30;;;;;;5108547;27;46522;-77
2022/03/31 08:02:16;;;;;;;5.55;2.90;;;18.60;50.30;;;;;;5116237;27;45167;-77
2022/03/31 08:04:43;;;;;;;4.20;2.80;;;18.60;50.10;;;;;;5110552;27;46465;-77
2022/03/31 08:07:10;;;;;;;5.13;3.10;;;18.60;50.10;;;;;;5110423;27;45232;-77
2022/03/31 08:09:37;;;;;;;4.35;2.55;;;18.60;50.10;;;;;;5108846;27;46284;-77
2022/03/31 08:12:05;;;;;;;3.30;2.35;;;18.60;50.00;;;;;;5110453;27;45468;-77
2022/03/31 08:14:33;;;;;;;3.53;2.65;;;18.60;50.00;;;;;;5110922;27;45431;-77
2022/03/31 08:17:00;;;;;;;4.15;2.88;;;18.60;50.00;;;;;;5101513;27;45319;-77
2022/03/31 08:19:30;;;;;;;4.68;3.00;;;18.60;50.00;;;;;;5109868;27;45232;-77
2022/03/31 08:21:57;;;;;;;3.72;2.85;;;18.60;50.20;;;;;;5107539;27;45347;-77
2022/03/31 08:24:24;;;;;;;4.38;3.13;;;18.60;50.10;;;;;;5101523;27;46400;-77
2022/03/31 08:26:51;;;;;;;4.10;3.00;;;18.60;50.10;;;;;;5108559;27;45308;-77
2022/03/31 08:29:18;;;;;;;5.45;2.85;;;18.60;50.10;;;;;;5109952;27;45380;-77
2022/03/31 08:31:46;;;;;;;4.22;2.92;;;18.50;50.00;;;;;;5110598;27;45291;-77
2022/03/31 08:34:13;;;;;;;5.32;3.10;;;18.50;50.00;;;;;;5109779;27;47449;-77
2022/03/31 08:36:40;;;;;;;4.43;2.78;;;18.60;50.10;;;;;;5109955;27;45271;-77
2022/03/31 08:39:07;;;;;;;4.43;3.20;;;18.60;50.10;;;;;;5109967;27;45182;-77
2022/03/31 08:41:34;;;;;;;4.40;3.05;;;18.50;50.20;;;;;;5107998;27;45422;-77
2022/03/31 08:44:01;;;;;;;3.47;2.67;;;18.50;50.30;;;;;;5107104;27;46885;-77
2022/03/31 08:46:32;;;;;;;4.53;2.63;;;18.50;50.30;;;;;;5100835;27;45236;-77
2022/03/31 08:49:01;;;;;;;4.35;2.75;;;18.50;50.40;;;;;;5106772;27;45172;-77
2022/03/31 08:51:28;;;;;;;3.17;2.35;;;18.50;50.30;;;;;;5108700;27;45280;-77
2022/03/31 08:53:55;;;;;;;4.93;2.80;;;18.60;50.50;;;;;;5108802;27;46424;-77
2022/03/31 08:56:22;;;;;;;3.10;2.38;;;18.60;50.40;;;;;;5109073;27;45168;-77
2022/03/31 08:58:49;;;;;;;3.90;2.90;;;18.60;50.30;;;;;;5109685;27;45545;-77
2022/03/31 09:01:17;;;;;;;5.22;3.30;;;18.60;50.20;;;;;;5107972;27;45327;-77
2022/03/31 09:03:44;;;;;;;2.92;2.40;;;18.60;50.20;;;;;;5108787;27;46618;-77
2022/03/31 09:06:23;;;;;;;4.25;2.88;;;18.60;50.20;;;;;;5107040;27;45176;-77
2022/03/31 09:08:57;;;;;;;3.85;2.50;;;18.60;50.20;;;;;;5097344;27;45270;-77
2022/03/31 09:11:28;;;;;;;4.43;2.75;;;18.60;50.00;;;;;;5095217;27;45317;-77
2022/03/31 09:13:56;;;;;;;3.97;2.80;;;18.60;50.00;;;;;;5114654;27;47130;-77
2022/03/31 09:16:31;;;;;;;4.25;2.80;;;18.60;50.00;;;;;;5113053;27;45263;-77
2022/03/31 09:19:02;;;;;;;3.70;2.63;;;18.60;50.00;;;;;;5106055;27;45273;-77
2022/03/31 09:21:31;;;;;;;3.60;2.40;;;18.60;50.10;;;;;;5107093;27;45255;-77
2022/03/31 09:24:00;;;;;;;4.10;2.88;;;18.60;50.20;;;;;;5109091;27;46505;-77
2022/03/31 09:26:31;;;;;;;4.85;3.00;;;18.60;50.30;;;;;;5106422;27;45131;-77
2022/03/31 09:29:10;;;;;;;4.07;2.90;;;18.50;50.30;;;;;;5108964;27;45350;-77
2022/03/31 09:31:37;;;;;;;3.88;2.78;;;18.50;50.30;;;;;;5109176;27;45220;-77
2022/03/31 09:34:04;;;;;;;4.68;2.80;;;18.50;50.40;;;;;;5106608;27;46443;-78
2022/03/31 09:36:32;;;;;;;5.10;3.28;;;18.50;50.30;;;;;;5108498;27;45965;-77
2022/03/31 09:39:02;;;;;;;4.45;2.63;;;18.50;50.30;;;;;;5108801;27;45150;-77
2022/03/31 09:41:31;;;;;;;4.10;3.10;;;18.50;50.40;;;;;;5108379;27;45418;-78
2022/03/31 09:44:00;;;;;;;4.88;3.17;;;18.50;50.50;;;;;;5107293;27;48569;-77
2022/03/31 09:46:33;;;;;;;4.20;2.80;;;18.40;50.40;;;;;;5108984;27;45233;-78
2022/03/31 09:49:09;;;;;;;3.92;2.90;;;18.50;50.40;;;;;;5107300;27;45257;-78
2022/03/31 09:51:37;;;;;;;5.28;3.15;;;18.50;50.30;;;;;;5109657;27;45270;-78
2022/03/31 09:54:05;;;;;;;4.00;2.40;;;18.50;50.30;;;;;;5109521;27;47093;-77
2022/03/31 09:56:35;;;;;;;3.30;2.53;;;18.60;50.30;;;;;;5106558;27;45610;-77
2022/03/31 09:59:04;;;;;;;4.53;2.42;;;18.60;50.30;;;;;;5107452;27;45220;-77
2022/03/31 10:01:31;;;;;;;3.63;2.45;;;18.50;50.30;;;;;;5106137;27;45311;-77
2022/03/31 10:03:58;;;;;;;5.22;3.08;;;18.50;50.30;;;;;;5107155;27;47430;-76
2022/03/31 10:06:26;;;;;;;3.60;2.40;;;18.50;50.30;;;;;;5108244;27;45368;-77
2022/03/31 10:08:57;;;;;;;3.88;2.38;;;18.50;50.30;;;;;;5107399;27;45278;-77
2022/03/31 10:11:25;;;;;;;3.65;2.70;;;18.50;50.20;;;;;;5105179;27;45243;-77
2022/03/31 10:14:03;;;;;;;4.57;2.92;;;18.50;50.20;;;;;;5108807;27;47187;-77
2022/03/31 10:16:38;;;;;;;5.28;3.22;;;18.50;50.10;;;;;;5107525;27;45111;-77
2022/03/31 10:19:05;;;;;;;4.78;3.33;;;18.50;50.10;;;;;;5106552;27;45285;-77
2022/03/31 10:21:32;;;;;;;6.82;3.42;;;18.50;50.20;;;;;;5103062;27;47080;-77
2022/03/31 10:26:45;;;;;;;4.30;3.00;;;18.40;50.00;;;;;;5098848;27;45198;-77
2022/03/31 10:29:13;;;;;;;5.70;3.00;;;18.40;50.20;;;;;;5101398;27;45232;-77
2022/03/31 10:31:42;;;;;;;5.93;3.35;;;18.40;50.10;;;;;;5106276;27;45353;-77
2022/03/31 10:34:10;;;;;;;4.65;3.00;;;18.40;50.10;;;;;;5092383;27;47955;-77
2022/03/31 10:36:40;;;;;;;3.90;2.72;;;18.40;50.20;;;;;;5107558;27;45527;-77
2022/03/31 10:39:17;;;;;;;3.78;2.70;;;18.50;50.20;;;;;;5105876;27;45192;-77
2022/03/31 10:41:45;;;;;;;4.22;3.13;;;18.50;50.20;;;;;;5108384;27;45135;-77
2022/03/31 10:44:19;;;;;;;3.72;2.80;;;18.50;50.20;;;;;;5107368;27;46552;-77
2022/03/31 10:46:59;;;;;;;5.07;2.95;;;18.50;50.00;;;;;;5095912;27;45274;-77
2022/03/31 10:49:26;;;;;;;4.57;3.20;;;18.50;50.10;;;;;;5106670;27;45620;-77
2022/03/31 10:51:53;;;;;;;3.90;2.75;;;18.50;50.00;;;;;;5101904;27;45178;-77
2022/03/31 10:54:28;;;;;;;5.93;3.25;;;18.50;50.10;;;;;;5099362;27;45352;-77
2022/03/31 10:57:06;;;;;;;4.47;2.80;;;18.50;50.00;;;;;;5104529;27;45379;-77
2022/03/31 10:59:34;;;;;;;3.75;2.72;;;18.50;50.00;;;;;;5102376;27;45259;-77
2022/03/31 11:02:10;;;;;;;3.45;2.40;;;18.60;50.00;;;;;;5105957;27;47027;-77
2022/03/31 11:04:51;;;;;;;6.35;3.00;;;18.60;50.00;;;;;;5105910;27;46193;-77
2022/03/31 11:07:20;;;;;;;3.63;2.72;;;18.50;49.90;;;;;;5104868;27;45243;-77
2022/03/31 11:09:49;;;;;;;3.60;2.65;;;18.50;50.00;;;;;;5107690;27;45212;-77
2022/03/31 11:12:28;;;;;;;5.53;2.88;;;18.60;50.00;;;;;;5099656;27;45503;-77
2022/03/31 11:14:56;;;;;;;3.13;2.55;;;18.60;50.10;;;;;;5106316;27;47282;-77
2022/03/31 11:17:23;;;;;;;5.10;3.00;;;18.60;50.10;;;;;;5106157;27;45954;-77
2022/03/31 11:19:53;;;;;;;3.45;2.60;;;18.60;50.30;;;;;;5090738;27;45581;-77
2022/03/31 11:22:21;;;;;;;5.93;2.90;;;18.60;50.20;;;;;;5089509;27;45434;-77
2022/03/31 11:24:50;;;;;;;4.15;2.88;;;18.60;50.30;;;;;;5103140;27;45219;-77
2022/03/31 11:27:29;;;;;;;4.38;2.78;;;18.60;50.40;;;;;;5104723;27;45294;-77
2022/03/31 11:29:58;;;;;;;3.50;2.85;;;18.60;50.40;;;;;;5107174;27;45272;-77
2022/03/31 11:32:31;;;;;;;4.78;3.50;;;18.60;50.30;;;;;;5110893;27;45605;-77
2022/03/31 11:34:58;;;;;;;5.78;3.63;;;18.60;50.40;;;;;;5100850;27;48154;-77
2022/03/31 11:37:25;;;;;;;5.07;3.30;;;18.60;50.50;;;;;;5102807;27;45412;-77
2022/03/31 11:39:53;;;;;;;5.97;4.00;;;18.60;50.40;;;;;;5104344;27;45357;-77
2022/03/31 11:42:20;;;;;;;6.32;4.43;;;18.60;50.40;;;;;;5105290;27;45471;-77
2022/03/31 11:44:47;;;;;;;7.60;4.13;;;18.60;50.30;;;;;;5107303;27;46449;-76
2022/03/31 11:47:18;;;;;;;5.47;4.13;;;18.60;50.20;;;;;;5099447;27;45242;-77
2022/03/31 11:49:45;;;;;;;6.43;4.47;;;18.70;50.30;;;;;;5107240;27;45339;-77
2022/03/31 11:52:12;;;;;;;6.32;3.90;;;18.70;50.00;;;;;;5107368;27;45224;-77
2022/03/31 11:54:42;;;;;;;6.53;4.35;;;18.70;50.00;;;;;;5104047;27;46282;-77
2022/03/31 11:57:12;;;;;;;4.85;3.75;;;18.70;51.30;;;;;;5107293;27;45187;-77
2022/03/31 11:59:39;;;;;;;5.55;4.25;;;18.70;50.20;;;;;;5107029;27;45263;-77
2022/03/31 12:02:13;;;;;;;6.60;3.70;;;18.60;49.80;;;;;;5105529;27;45392;-76
2022/03/31 12:04:42;;;;;;;5.97;4.22;;;18.70;49.90;;;;;;5100931;27;47607;-77
2022/03/31 12:07:10;;;;;;;6.15;3.58;;;18.70;49.60;;;;;;5107091;27;45284;-77
2022/03/31 12:09:40;;;;;;;5.70;3.63;;;18.80;49.60;;;;;;5104707;27;45217;-77
2022/03/31 12:12:10;;;;;;;5.22;3.35;;;18.80;49.30;;;;;;5106311;27;45686;-76
2022/03/31 12:14:39;;;;;;;5.00;3.35;;;18.80;49.30;;;;;;5105789;27;45416;-77
2022/03/31 12:17:07;;;;;;;5.13;3.55;;;18.80;49.60;;;;;;5105753;27;45409;-77
2022/03/31 12:19:42;;;;;;;5.43;3.72;;;18.80;49.60;;;;;;5107169;27;45305;-77
2022/03/31 12:22:10;;;;;;;5.43;3.63;;;18.70;49.50;;;;;;5104608;27;45261;-77
2022/03/31 12:24:47;;;;;;;7.20;4.10;;;18.60;49.70;;;;;;5107604;27;47158;-77
2022/03/31 12:27:16;;;;;;;8.32;3.67;;;18.60;50.00;;;;;;5098719;27;45115;-77
2022/03/31 12:29:45;;;;;;;4.55;3.38;;;18.50;50.00;;;;;;5096261;27;45336;-76
2022/03/31 12:32:14;;;;;;;4.70;3.40;;;18.50;50.10;;;;;;5102758;27;45401;-77
2022/03/31 12:34:53;;;;;;;4.25;3.00;;;18.50;50.20;;;;;;5107056;27;46996;-77
2022/03/31 12:37:28;;;;;;;5.35;2.92;;;18.40;50.30;;;;;;5103205;27;45313;-76
2022/03/31 12:39:56;;;;;;;4.60;3.33;;;18.50;50.30;;;;;;5107460;27;45275;-76
2022/03/31 12:42:23;;;;;;;4.90;3.05;;;18.50;50.10;;;;;;5108238;27;45346;-77
2022/03/31 12:44:51;;;;;;;6.40;2.90;;;18.50;50.00;;;;;;5109673;27;46351;-77
2022/03/31 12:47:24;;;;;;;4.28;3.20;;;18.50;50.10;;;;;;5105239;27;45403;-77
2022/03/31 12:49:51;;;;;;;5.50;3.03;;;18.50;50.30;;;;;;5106503;27;45307;-77
2022/03/31 12:52:19;;;;;;;3.95;2.92;;;18.50;50.40;;;;;;5109955;27;45296;-77
2022/03/31 12:54:51;;;;;;;5.05;2.60;;;18.50;50.30;;;;;;5107357;27;46857;-77
2022/03/31 12:57:20;;;;;;;3.75;2.72;;;18.50;50.10;;;;;;5109015;27;45552;-77
2022/03/31 13:00:04;;;;;;;7.03;3.28;;;18.50;50.30;;;;;;5103180;27;45377;-76